sensor_id;sensor_type;location;lat;lon;timestamp;pressure;altitude;pressure_sealevel;temperature;humidity
17873;BME280;36318;42.620;23.338;2023-01-30T00:01:39;93114.28;;;-1.01;100.00
17873;BME280;36318;42.620;23.338;2023-01-30T00:04:06;93121.94;;;-1.01;100.00
17873;BME280;36318;42.620;23.338;2023-01-30T00:06:34;93116.00;;;-1.01;100.00
17873;BME280;36318;42.620;23.338;2023-01-30T00:09:00;93112.13;;;-1.11;100.00
17873;BME280;36318;42.620;23.338;2023-01-30T00:11:27;93110.47;;;-1.12;100.00
17873;BME280;36318;42.620;23.338;2023-01-30T00:13:54;93101.28;;;-1.16;100.00
17873;BME280;36318;42.620;23.338;2023-01-30T00:16:20;93112.28;;;-1.16;100.00
17873;BME280;36318;42.620;23.338;2023-01-30T00:18:47;93099.63;;;-1.17;100.00
17873;BME280;36318;42.620;23.338;2023-01-30T00:21:14;93100.28;;;-1.12;100.00
17873;BME280;36318;42.620;23.338;2023-01-30T00:23:42;93101.22;;;-1.15;100.00
17873;BME280;36318;42.620;23.338;2023-01-30T00:26:09;93107.56;;;-1.27;100.00
17873;BME280;36318;42.620;23.338;2023-01-30T00:28:36;93099.81;;;-1.24;100.00
17873;BME280;36318;42.620;23.338;2023-01-30T00:31:03;93105.69;;;-1.22;100.00
17873;BME280;36318;42.620;23.338;2023-01-30T00:33:30;93098.88;;;-1.21;100.00
17873;BME280;36318;42.620;23.338;2023-01-30T00:35:57;93099.22;;;-1.30;100.00
17873;BME280;36318;42.620;23.338;2023-01-30T00:38:24;93101.59;;;-1.26;100.00
17873;BME280;36318;42.620;23.338;2023-01-30T00:40:52;93096.50;;;-1.26;100.00
17873;BME280;36318;42.620;23.338;2023-01-30T00:43:19;93093.19;;;-1.28;100.00
17873;BME280;36318;42.620;23.338;2023-01-30T00:46:04;93088.13;;;-1.28;100.00
17873;BME280;36318;42.620;23.338;2023-01-30T00:49:03;93079.56;;;-1.27;100.00
17873;BME280;36318;42.620;23.338;2023-01-30T00:51:30;93085.31;;;-1.22;100.00
17873;BME280;36318;42.620;23.338;2023-01-30T00:53:57;93072.00;;;-1.28;100.00
17873;BME280;36318;42.620;23.338;2023-01-30T00:56:25;93080.72;;;-1.35;100.00
17873;BME280;36318;42.620;23.338;2023-01-30T00:58:51;93078.97;;;-1.33;100.00
17873;BME280;36318;42.620;23.338;2023-01-30T01:01:18;93083.13;;;-1.31;100.00
17873;BME280;36318;42.620;23.338;2023-01-30T01:03:45;93081.34;;;-1.29;100.00
17873;BME280;36318;42.620;23.338;2023-01-30T01:06:12;93083.06;;;-1.29;100.00
17873;BME280;36318;42.620;23.338;2023-01-30T01:08:38;93080.50;;;-1.29;100.00
17873;BME280;36318;42.620;23.338;2023-01-30T01:11:05;93093.31;;;-1.31;100.00
17873;BME280;36318;42.620;23.338;2023-01-30T01:13:33;93085.56;;;-1.28;100.00
17873;BME280;36318;42.620;23.338;2023-01-30T01:15:59;93085.59;;;-1.29;100.00
17873;BME280;36318;42.620;23.338;2023-01-30T01:18:26;93080.22;;;-1.22;100.00
17873;BME280;36318;42.620;23.338;2023-01-30T01:20:52;93069.16;;;-1.21;100.00
17873;BME280;36318;42.620;23.338;2023-01-30T01:23:19;93073.53;;;-1.24;100.00
17873;BME280;36318;42.620;23.338;2023-01-30T01:25:46;93068.69;;;-1.30;100.00
17873;BME280;36318;42.620;23.338;2023-01-30T01:28:12;93063.75;;;-1.35;100.00
17873;BME280;36318;42.620;23.338;2023-01-30T01:30:40;93060.22;;;-1.31;100.00
17873;BME280;36318;42.620;23.338;2023-01-30T01:33:07;93068.81;;;-1.33;100.00
17873;BME280;36318;42.620;23.338;2023-01-30T01:35:33;93062.88;;;-1.34;100.00
17873;BME280;36318;42.620;23.338;2023-01-30T01:38:00;93065.25;;;-1.29;100.00
17873;BME280;36318;42.620;23.338;2023-01-30T01:40:26;93057.78;;;-1.34;100.00
17873;BME280;36318;42.620;23.338;2023-01-30T01:43:14;93056.22;;;-1.38;100.00
17873;BME280;36318;42.620;23.338;2023-01-30T01:45:43;93060.59;;;-1.41;100.00
17873;BME280;36318;42.620;23.338;2023-01-30T01:48:11;93059.69;;;-1.40;100.00
17873;BME280;36318;42.620;23.338;2023-01-30T01:50:41;93055.63;;;-1.44;100.00
17873;BME280;36318;42.620;23.338;2023-01-30T01:53:10;93067.63;;;-1.48;100.00
17873;BME280;36318;42.620;23.338;2023-01-30T01:55:37;93062.53;;;-1.48;100.00
17873;BME280;36318;42.620;23.338;2023-01-30T01:58:05;93063.44;;;-1.49;100.00
17873;BME280;36318;42.620;23.338;2023-01-30T02:00:33;93060.81;;;-1.47;100.00
17873;BME280;36318;42.620;23.338;2023-01-30T02:03:02;93064.97;;;-1.45;100.00
17873;BME280;36318;42.620;23.338;2023-01-30T02:05:32;93054.84;;;-1.46;100.00
17873;BME280;36318;42.620;23.338;2023-01-30T02:08:01;93066.75;;;-1.47;100.00
17873;BME280;36318;42.620;23.338;2023-01-30T02:10:31;93068.34;;;-1.44;100.00
17873;BME280;36318;42.620;23.338;2023-01-30T02:13:02;93071.88;;;-1.48;100.00
17873;BME280;36318;42.620;23.338;2023-01-30T02:15:28;93065.06;;;-1.48;100.00
17873;BME280;36318;42.620;23.338;2023-01-30T02:17:55;93064.41;;;-1.53;100.00
17873;BME280;36318;42.620;23.338;2023-01-30T02:20:25;93071.97;;;-1.51;100.00
17873;BME280;36318;42.620;23.338;2023-01-30T02:28:56;93072.22;;;-1.57;100.00
17873;BME280;36318;42.620;23.338;2023-01-30T02:31:28;93063.03;;;-1.61;100.00
17873;BME280;36318;42.620;23.338;2023-01-30T02:34:01;93064.53;;;-1.56;100.00
17873;BME280;36318;42.620;23.338;2023-01-30T02:36:44;93065.72;;;-1.66;100.00
17873;BME280;36318;42.620;23.338;2023-01-30T02:39:15;93061.38;;;-1.62;100.00
17873;BME280;36318;42.620;23.338;2023-01-30T02:41:47;93062.34;;;-1.66;100.00
17873;BME280;36318;42.620;23.338;2023-01-30T02:44:17;93067.50;;;-1.68;100.00
17873;BME280;36318;42.620;23.338;2023-01-30T02:46:50;93057.63;;;-1.77;100.00
17873;BME280;36318;42.620;23.338;2023-01-30T02:49:19;93056.78;;;-1.76;100.00
17873;BME280;36318;42.620;23.338;2023-01-30T02:51:48;93054.25;;;-1.77;100.00
17873;BME280;36318;42.620;23.338;2023-01-30T02:54:16;93058.63;;;-1.81;100.00
17873;BME280;36318;42.620;23.338;2023-01-30T02:56:43;93050.06;;;-1.78;100.00
17873;BME280;36318;42.620;23.338;2023-01-30T02:59:10;93054.94;;;-1.72;100.00
17873;BME280;36318;42.620;23.338;2023-01-30T03:04:23;93051.72;;;-1.77;100.00
17873;BME280;36318;42.620;23.338;2023-01-30T03:07:09;93059.97;;;-1.71;100.00
17873;BME280;36318;42.620;23.338;2023-01-30T03:09:41;93056.59;;;-1.71;100.00
17873;BME280;36318;42.620;23.338;2023-01-30T03:12:10;93059.97;;;-1.71;100.00
17873;BME280;36318;42.620;23.338;2023-01-30T03:14:41;93057.63;;;-1.77;100.00
17873;BME280;36318;42.620;23.338;2023-01-30T03:17:11;93044.75;;;-1.72;100.00
17873;BME280;36318;42.620;23.338;2023-01-30T03:19:39;93040.50;;;-1.72;100.00
17873;BME280;36318;42.620;23.338;2023-01-30T03:22:06;93036.19;;;-1.70;100.00
17873;BME280;36318;42.620;23.338;2023-01-30T03:24:33;93029.94;;;-1.85;100.00
17873;BME280;36318;42.620;23.338;2023-01-30T03:27:01;93031.44;;;-1.79;100.00
17873;BME280;36318;42.620;23.338;2023-01-30T03:29:28;93023.25;;;-1.87;100.00
17873;BME280;36318;42.620;23.338;2023-01-30T03:31:55;93024.84;;;-1.85;100.00
17873;BME280;36318;42.620;23.338;2023-01-30T03:34:22;93017.22;;;-1.85;100.00
17873;BME280;36318;42.620;23.338;2023-01-30T03:36:50;93016.28;;;-1.82;100.00
17873;BME280;36318;42.620;23.338;2023-01-30T03:39:16;93016.31;;;-1.84;100.00
17873;BME280;36318;42.620;23.338;2023-01-30T03:41:43;93013.00;;;-1.86;100.00
17873;BME280;36318;42.620;23.338;2023-01-30T03:44:10;93013.75;;;-1.82;100.00
17873;BME280;36318;42.620;23.338;2023-01-30T03:46:36;93016.94;;;-1.77;100.00
17873;BME280;36318;42.620;23.338;2023-01-30T03:49:03;93020.38;;;-1.78;100.00
17873;BME280;36318;42.620;23.338;2023-01-30T03:51:29;93022.25;;;-1.83;100.00
17873;BME280;36318;42.620;23.338;2023-01-30T03:53:57;93020.59;;;-1.84;100.00
17873;BME280;36318;42.620;23.338;2023-01-30T03:56:24;93020.25;;;-1.75;100.00
17873;BME280;36318;42.620;23.338;2023-01-30T03:58:50;93016.88;;;-1.75;100.00
17873;BME280;36318;42.620;23.338;2023-01-30T04:01:17;93018.75;;;-1.81;100.00
17873;BME280;36318;42.620;23.338;2023-01-30T04:03:43;93016.28;;;-1.82;100.00
17873;BME280;36318;42.620;23.338;2023-01-30T04:06:10;93003.56;;;-1.82;100.00
17873;BME280;36318;42.620;23.338;2023-01-30T04:08:37;93010.44;;;-1.84;100.00
17873;BME280;36318;42.620;23.338;2023-01-30T04:11:05;92998.47;;;-1.82;100.00
17873;BME280;36318;42.620;23.338;2023-01-30T04:13:31;93000.47;;;-1.90;100.00
17873;BME280;36318;42.620;23.338;2023-01-30T04:16:14;93007.75;;;-1.81;100.00
17873;BME280;36318;42.620;23.338;2023-01-30T04:18:42;93005.22;;;-1.81;100.00
17873;BME280;36318;42.620;23.338;2023-01-30T04:21:08;93004.41;;;-1.82;100.00
17873;BME280;36318;42.620;23.338;2023-01-30T04:23:35;93010.47;;;-1.86;100.00
17873;BME280;36318;42.620;23.338;2023-01-30T04:26:01;93004.78;;;-1.92;100.00
17873;BME280;36318;42.620;23.338;2023-01-30T04:28:29;93004.53;;;-1.86;100.00
17873;BME280;36318;42.620;23.338;2023-01-30T04:30:56;93007.91;;;-1.86;100.00
17873;BME280;36318;42.620;23.338;2023-01-30T04:33:22;93012.97;;;-1.84;100.00
17873;BME280;36318;42.620;23.338;2023-01-30T04:35:52;93007.81;;;-1.83;100.00
17873;BME280;36318;42.620;23.338;2023-01-30T04:38:18;93003.97;;;-1.94;100.00
17873;BME280;36318;42.620;23.338;2023-01-30T04:40:48;93007.19;;;-1.89;100.00
17873;BME280;36318;42.620;23.338;2023-01-30T04:43:14;93001.97;;;-1.85;100.00
17873;BME280;36318;42.620;23.338;2023-01-30T04:45:43;93001.78;;;-1.80;100.00
17873;BME280;36318;42.620;23.338;2023-01-30T04:48:10;92994.91;;;-1.76;100.00
17873;BME280;36318;42.620;23.338;2023-01-30T04:50:36;92993.94;;;-1.74;100.00
17873;BME280;36318;42.620;23.338;2023-01-30T04:53:03;92989.81;;;-1.76;100.00
17873;BME280;36318;42.620;23.338;2023-01-30T04:55:29;92984.88;;;-1.81;100.00
17873;BME280;36318;42.620;23.338;2023-01-30T04:57:56;92986.31;;;-1.74;100.00
17873;BME280;36318;42.620;23.338;2023-01-30T05:00:23;92983.66;;;-1.71;100.00
17873;BME280;36318;42.620;23.338;2023-01-30T05:02:51;92976.34;;;-1.80;100.00
17873;BME280;36318;42.620;23.338;2023-01-30T05:05:20;92978.88;;;-1.78;100.00
17873;BME280;36318;42.620;23.338;2023-01-30T05:07:46;92986.31;;;-1.74;100.00
17873;BME280;36318;42.620;23.338;2023-01-30T05:10:13;92976.16;;;-1.74;100.00
17873;BME280;36318;42.620;23.338;2023-01-30T05:12:39;92983.00;;;-1.76;100.00
17873;BME280;36318;42.620;23.338;2023-01-30T05:15:06;92984.44;;;-1.69;100.00
17873;BME280;36318;42.620;23.338;2023-01-30T05:17:33;92983.94;;;-1.78;100.00
17873;BME280;36318;42.620;23.338;2023-01-30T05:20:02;92982.88;;;-1.73;100.00
17873;BME280;36318;42.620;23.338;2023-01-30T05:22:29;92990.28;;;-1.67;100.00
17873;BME280;36318;42.620;23.338;2023-01-30T05:24:55;92994.53;;;-1.67;100.00
17873;BME280;36318;42.620;23.338;2023-01-30T05:27:22;92991.19;;;-1.68;100.00
17873;BME280;36318;42.620;23.338;2023-01-30T05:29:49;92994.59;;;-1.69;100.00
17873;BME280;36318;42.620;23.338;2023-01-30T05:32:16;92986.91;;;-1.67;100.00
17873;BME280;36318;42.620;23.338;2023-01-30T05:34:43;92989.53;;;-1.69;100.00
17873;BME280;36318;42.620;23.338;2023-01-30T05:37:11;92986.22;;;-1.71;100.00
17873;BME280;36318;42.620;23.338;2023-01-30T05:39:38;92981.16;;;-1.72;100.00
17873;BME280;36318;42.620;23.338;2023-01-30T05:42:04;92979.47;;;-1.72;100.00
17873;BME280;36318;42.620;23.338;2023-01-30T05:44:31;92975.41;;;-1.77;100.00
17873;BME280;36318;42.620;23.338;2023-01-30T05:46:58;92977.13;;;-1.78;100.00
17873;BME280;36318;42.620;23.338;2023-01-30T05:49:24;92992.50;;;-1.81;100.00
17873;BME280;36318;42.620;23.338;2023-01-30T05:51:51;92992.25;;;-1.73;100.00
17873;BME280;36318;42.620;23.338;2023-01-30T05:54:19;92990.34;;;-1.68;100.00
17873;BME280;36318;42.620;23.338;2023-01-30T05:56:47;92993.78;;;-1.69;100.00
17873;BME280;36318;42.620;23.338;2023-01-30T05:59:13;92991.19;;;-1.68;100.00
17873;BME280;36318;42.620;23.338;2023-01-30T06:01:41;92995.84;;;-1.79;100.00
17873;BME280;36318;42.620;23.338;2023-01-30T06:04:07;93000.69;;;-1.73;100.00
17873;BME280;36318;42.620;23.338;2023-01-30T06:06:34;92999.69;;;-1.69;100.00
17873;BME280;36318;42.620;23.338;2023-01-30T06:09:03;93004.84;;;-1.70;100.00
17873;BME280;36318;42.620;23.338;2023-01-30T06:11:31;92996.31;;;-1.69;100.00
17873;BME280;36318;42.620;23.338;2023-01-30T06:13:57;92992.00;;;-1.67;100.00
17873;BME280;36318;42.620;23.338;2023-01-30T06:16:24;92992.94;;;-1.70;100.00
17873;BME280;36318;42.620;23.338;2023-01-30T06:18:51;92989.72;;;-1.75;100.00
17873;BME280;36318;42.620;23.338;2023-01-30T06:21:17;92986.88;;;-1.66;100.00
17873;BME280;36318;42.620;23.338;2023-01-30T06:23:44;92979.28;;;-1.67;100.00
17873;BME280;36318;42.620;23.338;2023-01-30T06:26:10;92983.38;;;-1.63;100.00
17873;BME280;36318;42.620;23.338;2023-01-30T06:28:38;92974.19;;;-1.67;100.00
17873;BME280;36318;42.620;23.338;2023-01-30T06:31:05;92972.47;;;-1.67;100.00
17873;BME280;36318;42.620;23.338;2023-01-30T06:33:32;92976.53;;;-1.61;100.00
17873;BME280;36318;42.620;23.338;2023-01-30T06:35:59;92982.44;;;-1.61;100.00
17873;BME280;36318;42.620;23.338;2023-01-30T06:38:25;92983.41;;;-1.65;100.00
17873;BME280;36318;42.620;23.338;2023-01-30T06:40:52;92985.94;;;-1.63;100.00
17873;BME280;36318;42.620;23.338;2023-01-30T06:43:19;92990.16;;;-1.62;100.00
17873;BME280;36318;42.620;23.338;2023-01-30T06:45:47;92984.13;;;-1.60;100.00
17873;BME280;36318;42.620;23.338;2023-01-30T06:48:13;92988.50;;;-1.65;100.00
17873;BME280;36318;42.620;23.338;2023-01-30T06:50:40;92985.00;;;-1.61;100.00
17873;BME280;36318;42.620;23.338;2023-01-30T06:53:06;92990.63;;;-1.53;100.00
17873;BME280;36318;42.620;23.338;2023-01-30T06:55:33;92990.84;;;-1.59;100.00
17873;BME280;36318;42.620;23.338;2023-01-30T06:58:01;92993.06;;;-1.50;100.00
17873;BME280;36318;42.620;23.338;2023-01-30T07:00:28;92993.81;;;-1.48;100.00
17873;BME280;36318;42.620;23.338;2023-01-30T07:02:56;92998.06;;;-1.48;100.00
17873;BME280;36318;42.620;23.338;2023-01-30T07:05:22;93001.53;;;-1.49;100.00
17873;BME280;36318;42.620;23.338;2023-01-30T07:07:49;93007.56;;;-1.52;100.00
17873;BME280;36318;42.620;23.338;2023-01-30T07:10:15;93007.31;;;-1.46;100.00
17873;BME280;36318;42.620;23.338;2023-01-30T07:12:43;92999.75;;;-1.47;100.00
17873;BME280;36318;42.620;23.338;2023-01-30T07:15:10;92996.34;;;-1.46;100.00
17873;BME280;36318;42.620;23.338;2023-01-30T07:17:38;93005.38;;;-1.39;100.00
17873;BME280;36318;42.620;23.338;2023-01-30T07:20:06;93003.50;;;-1.34;100.00
17873;BME280;36318;42.620;23.338;2023-01-30T07:22:33;93003.59;;;-1.37;100.00
17873;BME280;36318;42.620;23.338;2023-01-30T07:25:00;93006.97;;;-1.37;100.00
17873;BME280;36318;42.620;23.338;2023-01-30T07:27:26;93010.41;;;-1.38;100.00
17873;BME280;36318;42.620;23.338;2023-01-30T07:29:53;93012.94;;;-1.38;100.00
17873;BME280;36318;42.620;23.338;2023-01-30T07:32:20;93015.75;;;-1.44;100.00
17873;BME280;36318;42.620;23.338;2023-01-30T07:34:46;93013.75;;;-1.36;100.00
17873;BME280;36318;42.620;23.338;2023-01-30T07:37:14;93020.59;;;-1.38;100.00
17873;BME280;36318;42.620;23.338;2023-01-30T07:39:41;93020.59;;;-1.38;100.00
17873;BME280;36318;42.620;23.338;2023-01-30T07:42:08;93023.69;;;-1.30;100.00
17873;BME280;36318;42.620;23.338;2023-01-30T07:44:34;93022.81;;;-1.29;100.00
17873;BME280;36318;42.620;23.338;2023-01-30T07:47:01;93027.50;;;-1.18;100.00
17873;BME280;36318;42.620;23.338;2023-01-30T07:49:28;93027.44;;;-1.16;100.00
17873;BME280;36318;42.620;23.338;2023-01-30T07:51:55;93025.56;;;-1.11;100.00
17873;BME280;36318;42.620;23.338;2023-01-30T07:54:23;93018.69;;;-1.09;100.00
17873;BME280;36318;42.620;23.338;2023-01-30T07:56:50;93024.00;;;-1.15;100.00
17873;BME280;36318;42.620;23.338;2023-01-30T07:59:17;93019.22;;;-1.01;100.00
17873;BME280;36318;42.620;23.338;2023-01-30T08:01:43;93013.06;;;-0.96;100.00
17873;BME280;36318;42.620;23.338;2023-01-30T08:04:10;93004.94;;;-0.84;100.00
17873;BME280;36318;42.620;23.338;2023-01-30T08:06:37;93006.19;;;-0.72;100.00
17873;BME280;36318;42.620;23.338;2023-01-30T08:09:04;92998.31;;;-0.66;100.00
17873;BME280;36318;42.620;23.338;2023-01-30T08:11:32;92999.72;;;-0.59;100.00
17873;BME280;36318;42.620;23.338;2023-01-30T08:13:58;93005.00;;;-0.64;100.00
17873;BME280;36318;42.620;23.338;2023-01-30T08:16:25;93001.13;;;-0.52;100.00
17873;BME280;36318;42.620;23.338;2023-01-30T08:18:51;93006.47;;;-0.38;100.00
17873;BME280;36318;42.620;23.338;2023-01-30T08:21:18;93007.19;;;-0.34;100.00
17873;BME280;36318;42.620;23.338;2023-01-30T08:23:44;93007.53;;;-0.22;100.00
17873;BME280;36318;42.620;23.338;2023-01-30T08:26:11;93005.56;;;-0.15;100.00
17873;BME280;36318;42.620;23.338;2023-01-30T08:28:39;93003.72;;;-0.12;100.00
17873;BME280;36318;42.620;23.338;2023-01-30T08:31:07;93004.56;;;-0.11;100.00
17873;BME280;36318;42.620;23.338;2023-01-30T08:33:34;92995.47;;;-0.18;100.00
17873;BME280;36318;42.620;23.338;2023-01-30T08:36:01;92995.03;;;-0.08;100.00
17873;BME280;36318;42.620;23.338;2023-01-30T08:38:27;92993.09;;;-0.03;100.00
17873;BME280;36318;42.620;23.338;2023-01-30T08:40:54;92988.59;;;0.04;100.00
17873;BME280;36318;42.620;23.338;2023-01-30T08:43:22;92984.94;;;-0.11;100.00
17873;BME280;36318;42.620;23.338;2023-01-30T08:45:50;92986.75;;;-0.13;100.00
17873;BME280;36318;42.620;23.338;2023-01-30T08:48:18;92977.72;;;-0.20;100.00
17873;BME280;36318;42.620;23.338;2023-01-30T08:50:44;92983.56;;;-0.18;100.00
17873;BME280;36318;42.620;23.338;2023-01-30T08:53:11;92981.59;;;-0.11;100.00
17873;BME280;36318;42.620;23.338;2023-01-30T08:55:37;92982.56;;;-0.14;100.00
17873;BME280;36318;42.620;23.338;2023-01-30T08:58:04;92982.16;;;-0.05;100.00
17873;BME280;36318;42.620;23.338;2023-01-30T09:00:30;92968.84;;;-0.11;100.00
17873;BME280;36318;42.620;23.338;2023-01-30T09:02:58;92966.38;;;0.06;100.00
17873;BME280;36318;42.620;23.338;2023-01-30T09:05:26;92965.41;;;0.09;100.00
17873;BME280;36318;42.620;23.338;2023-01-30T09:07:54;92965.63;;;0.04;100.00
17873;BME280;36318;42.620;23.338;2023-01-30T09:10:20;92964.53;;;0.10;100.00
17873;BME280;36318;42.620;23.338;2023-01-30T09:12:48;92959.91;;;-0.01;100.00
17873;BME280;36318;42.620;23.338;2023-01-30T09:15:15;92963.16;;;-0.18;100.00
17873;BME280;36318;42.620;23.338;2023-01-30T09:17:41;92952.72;;;-0.12;100.00
17873;BME280;36318;42.620;23.338;2023-01-30T09:20:10;92957.97;;;0.04;100.00
17873;BME280;36318;42.620;23.338;2023-01-30T09:22:39;92956.34;;;0.22;100.00
17873;BME280;36318;42.620;23.338;2023-01-30T09:25:06;92954.16;;;0.33;100.00
17873;BME280;36318;42.620;23.338;2023-01-30T09:27:33;92957.84;;;0.46;100.00
17873;BME280;36318;42.620;23.338;2023-01-30T09:29:59;92958.78;;;0.43;100.00
17873;BME280;36318;42.620;23.338;2023-01-30T09:32:26;92949.47;;;0.61;100.00
17873;BME280;36318;42.620;23.338;2023-01-30T09:34:53;92958.72;;;0.64;100.00
17873;BME280;36318;42.620;23.338;2023-01-30T09:37:20;92957.19;;;0.59;100.00
17873;BME280;36318;42.620;23.338;2023-01-30T09:39:47;92959.28;;;0.70;100.00
17873;BME280;36318;42.620;23.338;2023-01-30T09:42:21;92953.00;;;0.58;100.00
17873;BME280;36318;42.620;23.338;2023-01-30T09:45:00;92953.97;;;0.75;100.00
17873;BME280;36318;42.620;23.338;2023-01-30T09:47:34;92952.50;;;0.69;100.00
17873;BME280;36318;42.620;23.338;2023-01-30T09:50:07;92938.84;;;0.70;100.00
17873;BME280;36318;42.620;23.338;2023-01-30T09:52:45;92939.00;;;1.03;100.00
17873;BME280;36318;42.620;23.338;2023-01-30T09:55:17;92927.19;;;0.83;100.00
17873;BME280;36318;42.620;23.338;2023-01-30T09:57:45;92923.00;;;0.99;100.00
17873;BME280;36318;42.620;23.338;2023-01-30T10:00:13;92921.41;;;0.97;100.00
17873;BME280;36318;42.620;23.338;2023-01-30T10:02:48;92931.28;;;1.04;100.00
17873;BME280;36318;42.620;23.338;2023-01-30T10:05:15;92916.84;;;1.03;100.00
17873;BME280;36318;42.620;23.338;2023-01-30T10:07:53;92910.75;;;1.06;100.00
17873;BME280;36318;42.620;23.338;2023-01-30T10:10:28;92912.50;;;1.05;100.00
17873;BME280;36318;42.620;23.338;2023-01-30T10:13:02;92902.19;;;1.07;100.00
17873;BME280;36318;42.620;23.338;2023-01-30T10:15:33;92902.56;;;1.16;100.00
17873;BME280;36318;42.620;23.338;2023-01-30T10:18:11;92891.59;;;0.97;100.00
17873;BME280;36318;42.620;23.338;2023-01-30T10:20:42;92888.72;;;1.03;100.00
17873;BME280;36318;42.620;23.338;2023-01-30T10:23:16;92887.81;;;0.87;100.00
17873;BME280;36318;42.620;23.338;2023-01-30T10:25:47;92871.75;;;1.02;100.00
17873;BME280;36318;42.620;23.338;2023-01-30T10:28:15;92875.38;;;1.15;100.00
17873;BME280;36318;42.620;23.338;2023-01-30T10:30:43;92875.84;;;1.24;100.00
17873;BME280;36318;42.620;23.338;2023-01-30T10:33:14;92871.47;;;1.26;100.00
17873;BME280;36318;42.620;23.338;2023-01-30T10:35:43;92866.19;;;1.11;100.00
17873;BME280;36318;42.620;23.338;2023-01-30T10:38:15;92857.97;;;0.88;100.00
17873;BME280;36318;42.620;23.338;2023-01-30T10:40:45;92854.75;;;0.84;100.00
17873;BME280;36318;42.620;23.338;2023-01-30T10:43:15;92843.53;;;0.87;100.00
17873;BME280;36318;42.620;23.338;2023-01-30T10:45:47;92837.19;;;0.78;100.00
17873;BME280;36318;42.620;23.338;2023-01-30T10:48:22;92840.16;;;0.69;100.00
17873;BME280;36318;42.620;23.338;2023-01-30T10:50:55;92833.03;;;0.76;100.00
17873;BME280;36318;42.620;23.338;2023-01-30T10:53:25;92827.63;;;0.65;100.00
17873;BME280;36318;42.620;23.338;2023-01-30T10:55:55;92822.06;;;0.74;100.00
17873;BME280;36318;42.620;23.338;2023-01-30T10:58:26;92819.53;;;0.38;100.00
17873;BME280;36318;42.620;23.338;2023-01-30T11:00:58;92815.88;;;0.60;100.00
17873;BME280;36318;42.620;23.338;2023-01-30T11:03:27;92811.06;;;0.54;100.00
17873;BME280;36318;42.620;23.338;2023-01-30T11:05:59;92813.69;;;0.53;100.00
17873;BME280;36318;42.620;23.338;2023-01-30T11:08:29;92800.50;;;0.43;100.00
17873;BME280;36318;42.620;23.338;2023-01-30T11:10:56;92794.38;;;0.47;100.00
17873;BME280;36318;42.620;23.338;2023-01-30T11:13:25;92784.44;;;0.41;100.00
17873;BME280;36318;42.620;23.338;2023-01-30T11:15:55;92795.16;;;0.31;100.00
17873;BME280;36318;42.620;23.338;2023-01-30T11:18:22;92795.38;;;0.26;100.00
17873;BME280;36318;42.620;23.338;2023-01-30T11:23:32;92781.56;;;0.30;100.00
17873;BME280;36318;42.620;23.338;2023-01-30T11:26:00;92774.47;;;0.37;100.00
17873;BME280;36318;42.620;23.338;2023-01-30T11:28:27;92761.13;;;0.49;100.00
17873;BME280;36318;42.620;23.338;2023-01-30T11:30:59;92764.34;;;0.52;100.00
17873;BME280;36318;42.620;23.338;2023-01-30T11:33:30;92754.09;;;0.54;100.00
17873;BME280;36318;42.620;23.338;2023-01-30T11:35:58;92753.03;;;0.58;100.00
17873;BME280;36318;42.620;23.338;2023-01-30T11:38:25;92754.97;;;0.53;100.00
17873;BME280;36318;42.620;23.338;2023-01-30T11:41:04;92747.91;;;0.58;100.00
17873;BME280;36318;42.620;23.338;2023-01-30T11:43:31;92741.53;;;0.49;100.00
17873;BME280;36318;42.620;23.338;2023-01-30T11:45:58;92742.06;;;0.56;100.00
17873;BME280;36318;42.620;23.338;2023-01-30T11:48:26;92735.69;;;0.65;100.00
17873;BME280;36318;42.620;23.338;2023-01-30T11:50:54;92729.59;;;0.67;100.00
17873;BME280;36318;42.620;23.338;2023-01-30T11:53:26;92716.06;;;0.65;100.00
17873;BME280;36318;42.620;23.338;2023-01-30T11:55:55;92705.13;;;0.63;100.00
17873;BME280;36318;42.620;23.338;2023-01-30T11:58:27;92703.09;;;0.70;100.00
17873;BME280;36318;42.620;23.338;2023-01-30T12:00:54;92701.34;;;0.87;100.00
17873;BME280;36318;42.620;23.338;2023-01-30T12:03:21;92693.13;;;0.98;100.00
17873;BME280;36318;42.620;23.338;2023-01-30T12:05:49;92694.34;;;1.08;100.00
17873;BME280;36318;42.620;23.338;2023-01-30T12:08:23;92677.25;;;1.08;100.00
17873;BME280;36318;42.620;23.338;2023-01-30T12:10:51;92674.91;;;1.21;100.00
17873;BME280;36318;42.620;23.338;2023-01-30T12:13:19;92671.41;;;1.06;100.00
17873;BME280;36318;42.620;23.338;2023-01-30T12:15:50;92662.47;;;0.98;100.00
17873;BME280;36318;42.620;23.338;2023-01-30T12:18:22;92666.88;;;1.11;100.00
17873;BME280;36318;42.620;23.338;2023-01-30T12:20:51;92659.91;;;1.31;100.00
17873;BME280;36318;42.620;23.338;2023-01-30T12:23:22;92665.50;;;1.22;100.00
17873;BME280;36318;42.620;23.338;2023-01-30T12:25:55;92661.34;;;1.03;100.00
17873;BME280;36318;42.620;23.338;2023-01-30T12:28:26;92658.59;;;1.24;100.00
17873;BME280;36318;42.620;23.338;2023-01-30T12:31:00;92652.94;;;1.01;100.00
17873;BME280;36318;42.620;23.338;2023-01-30T12:33:31;92644.94;;;0.75;100.00
17873;BME280;36318;42.620;23.338;2023-01-30T12:36:01;92635.94;;;1.00;100.00
17873;BME280;36318;42.620;23.338;2023-01-30T12:38:38;92649.78;;;0.96;100.00
17873;BME280;36318;42.620;23.338;2023-01-30T12:41:13;92647.97;;;0.98;100.00
17873;BME280;36318;42.620;23.338;2023-01-30T12:43:47;92637.75;;;0.98;100.00
17873;BME280;36318;42.620;23.338;2023-01-30T12:46:24;92641.03;;;0.35;100.00
17873;BME280;36318;42.620;23.338;2023-01-30T12:51:58;92621.19;;;0.23;100.00
17873;BME280;36318;42.620;23.338;2023-01-30T12:54:34;92590.81;;;0.18;100.00
17873;BME280;36318;42.620;23.338;2023-01-30T12:57:06;92612.72;;;0.05;100.00
17873;BME280;36318;42.620;23.338;2023-01-30T12:59:35;92609.31;;;-0.13;100.00
17873;BME280;36318;42.620;23.338;2023-01-30T13:02:18;92612.00;;;-0.16;100.00
17873;BME280;36318;42.620;23.338;2023-01-30T13:04:51;92611.81;;;-0.11;100.00